sensor_id;sensor_type;location;lat;lon;timestamp;temperature;humidity
27164;DHT22;14685;50.618;7.024;2024-02-23T00:01:44;8.50;99.90
27164;DHT22;14685;50.618;7.024;2024-02-23T00:04:13;8.50;99.90
27164;DHT22;14685;50.618;7.024;2024-02-23T00:06:40;8.50;99.90
27164;DHT22;14685;50.618;7.024;2024-02-23T00:09:07;8.50;99.90
27164;DHT22;14685;50.618;7.024;2024-02-23T00:11:35;8.40;99.90
27164;DHT22;14685;50.618;7.024;2024-02-23T00:14:06;8.30;99.90
27164;DHT22;14685;50.618;7.024;2024-02-23T00:16:40;8.40;99.90
27164;DHT22;14685;50.618;7.024;2024-02-23T00:19:08;8.40;99.90
27164;DHT22;14685;50.618;7.024;2024-02-23T00:21:37;8.40;99.90
27164;DHT22;14685;50.618;7.024;2024-02-23T00:24:05;8.50;99.90
27164;DHT22;14685;50.618;7.024;2024-02-23T00:26:32;8.50;99.90
27164;DHT22;14685;50.618;7.024;2024-02-23T00:28:59;8.50;99.90
27164;DHT22;14685;50.618;7.024;2024-02-23T00:31:26;8.50;99.90
27164;DHT22;14685;50.618;7.024;2024-02-23T00:33:56;8.60;99.90
27164;DHT22;14685;50.618;7.024;2024-02-23T00:36:23;8.60;99.90
27164;DHT22;14685;50.618;7.024;2024-02-23T00:38:52;8.70;99.90
27164;DHT22;14685;50.618;7.024;2024-02-23T00:41:19;8.60;99.90
27164;DHT22;14685;50.618;7.024;2024-02-23T00:43:46;8.60;99.90
27164;DHT22;14685;50.618;7.024;2024-02-23T00:46:15;8.50;99.90
27164;DHT22;14685;50.618;7.024;2024-02-23T00:48:44;8.40;99.90
27164;DHT22;14685;50.618;7.024;2024-02-23T00:51:12;8.40;99.90
27164;DHT22;14685;50.618;7.024;2024-02-23T00:53:39;8.40;99.90
27164;DHT22;14685;50.618;7.024;2024-02-23T00:56:07;8.30;99.90
27164;DHT22;14685;50.618;7.024;2024-02-23T00:58:34;8.30;99.90
27164;DHT22;14685;50.618;7.024;2024-02-23T01:01:03;8.30;99.90
27164;DHT22;14685;50.618;7.024;2024-02-23T01:03:30;8.30;99.90
27164;DHT22;14685;50.618;7.024;2024-02-23T01:05:57;8.20;99.90
27164;DHT22;14685;50.618;7.024;2024-02-23T01:08:24;8.20;99.90
27164;DHT22;14685;50.618;7.024;2024-02-23T01:10:51;8.20;99.90
27164;DHT22;14685;50.618;7.024;2024-02-23T01:13:18;8.20;99.90
27164;DHT22;14685;50.618;7.024;2024-02-23T01:15:46;8.30;99.90
27164;DHT22;14685;50.618;7.024;2024-02-23T01:18:14;8.20;99.90
27164;DHT22;14685;50.618;7.024;2024-02-23T01:20:41;8.30;99.90
27164;DHT22;14685;50.618;7.024;2024-02-23T01:23:08;8.30;99.90
27164;DHT22;14685;50.618;7.024;2024-02-23T01:25:36;8.30;99.90
27164;DHT22;14685;50.618;7.024;2024-02-23T01:28:04;8.20;99.90
27164;DHT22;14685;50.618;7.024;2024-02-23T01:30:31;8.10;99.90
27164;DHT22;14685;50.618;7.024;2024-02-23T01:32:58;8.00;99.90
27164;DHT22;14685;50.618;7.024;2024-02-23T01:35:25;8.00;99.90
27164;DHT22;14685;50.618;7.024;2024-02-23T01:37:53;7.90;99.90
27164;DHT22;14685;50.618;7.024;2024-02-23T01:40:21;7.90;99.90
27164;DHT22;14685;50.618;7.024;2024-02-23T01:43:07;7.80;99.90
27164;DHT22;14685;50.618;7.024;2024-02-23T01:45:35;7.80;99.90
27164;DHT22;14685;50.618;7.024;2024-02-23T01:48:02;7.70;99.90
27164;DHT22;14685;50.618;7.024;2024-02-23T01:50:30;7.60;99.90
27164;DHT22;14685;50.618;7.024;2024-02-23T01:53:00;7.60;99.90
27164;DHT22;14685;50.618;7.024;2024-02-23T01:55:28;7.60;99.90
27164;DHT22;14685;50.618;7.024;2024-02-23T01:58:00;7.50;99.90
27164;DHT22;14685;50.618;7.024;2024-02-23T02:00:31;7.60;99.90
27164;DHT22;14685;50.618;7.024;2024-02-23T02:02:58;7.60;99.90
27164;DHT22;14685;50.618;7.024;2024-02-23T02:05:25;7.60;99.90
27164;DHT22;14685;50.618;7.024;2024-02-23T02:07:53;7.50;99.90
27164;DHT22;14685;50.618;7.024;2024-02-23T02:10:26;7.50;99.90
27164;DHT22;14685;50.618;7.024;2024-02-23T02:12:54;7.60;99.90
27164;DHT22;14685;50.618;7.024;2024-02-23T02:15:22;7.50;99.90
27164;DHT22;14685;50.618;7.024;2024-02-23T02:17:49;7.40;99.90
27164;DHT22;14685;50.618;7.024;2024-02-23T02:20:18;7.50;99.90
27164;DHT22;14685;50.618;7.024;2024-02-23T02:22:45;7.50;99.90
27164;DHT22;14685;50.618;7.024;2024-02-23T02:25:14;7.50;99.90
27164;DHT22;14685;50.618;7.024;2024-02-23T02:27:45;7.50;99.90
27164;DHT22;14685;50.618;7.024;2024-02-23T02:30:12;7.50;99.90
27164;DHT22;14685;50.618;7.024;2024-02-23T02:32:40;7.50;99.90
27164;DHT22;14685;50.618;7.024;2024-02-23T02:35:11;7.60;99.90
27164;DHT22;14685;50.618;7.024;2024-02-23T02:37:39;7.60;99.90
27164;DHT22;14685;50.618;7.024;2024-02-23T02:40:07;7.60;99.90
27164;DHT22;14685;50.618;7.024;2024-02-23T02:42:34;7.60;99.90
27164;DHT22;14685;50.618;7.024;2024-02-23T02:45:01;7.70;99.90
27164;DHT22;14685;50.618;7.024;2024-02-23T02:47:30;7.70;99.90
27164;DHT22;14685;50.618;7.024;2024-02-23T02:49:57;7.70;99.90
27164;DHT22;14685;50.618;7.024;2024-02-23T02:52:25;7.70;99.90
27164;DHT22;14685;50.618;7.024;2024-02-23T02:54:52;7.70;99.90
27164;DHT22;14685;50.618;7.024;2024-02-23T02:57:20;7.60;99.90
27164;DHT22;14685;50.618;7.024;2024-02-23T02:59:47;7.60;99.90
27164;DHT22;14685;50.618;7.024;2024-02-23T03:02:14;7.60;99.90
27164;DHT22;14685;50.618;7.024;2024-02-23T03:04:48;7.60;99.90
27164;DHT22;14685;50.618;7.024;2024-02-23T03:07:16;7.60;99.90
27164;DHT22;14685;50.618;7.024;2024-02-23T03:09:43;7.60;99.90
27164;DHT22;14685;50.618;7.024;2024-02-23T03:12:10;7.50;99.90
27164;DHT22;14685;50.618;7.024;2024-02-23T03:14:37;7.50;99.90
27164;DHT22;14685;50.618;7.024;2024-02-23T03:17:08;7.40;99.90
27164;DHT22;14685;50.618;7.024;2024-02-23T03:19:38;7.50;99.90
27164;DHT22;14685;50.618;7.024;2024-02-23T03:22:05;7.40;99.90
27164;DHT22;14685;50.618;7.024;2024-02-23T03:24:33;7.30;99.90
27164;DHT22;14685;50.618;7.024;2024-02-23T03:29:29;7.20;99.90
27164;DHT22;14685;50.618;7.024;2024-02-23T03:31:58;7.20;99.90
27164;DHT22;14685;50.618;7.024;2024-02-23T03:34:26;7.10;99.90
27164;DHT22;14685;50.618;7.024;2024-02-23T03:36:56;7.10;99.90
27164;DHT22;14685;50.618;7.024;2024-02-23T03:39:26;7.00;99.90
27164;DHT22;14685;50.618;7.024;2024-02-23T03:41:53;7.00;99.90
27164;DHT22;14685;50.618;7.024;2024-02-23T03:44:21;7.00;99.90
27164;DHT22;14685;50.618;7.024;2024-02-23T03:46:51;7.00;99.90
27164;DHT22;14685;50.618;7.024;2024-02-23T03:49:18;7.00;99.90
27164;DHT22;14685;50.618;7.024;2024-02-23T03:51:45;7.00;99.90
27164;DHT22;14685;50.618;7.024;2024-02-23T03:54:13;7.00;99.90
27164;DHT22;14685;50.618;7.024;2024-02-23T03:56:41;7.00;99.90
27164;DHT22;14685;50.618;7.024;2024-02-23T03:59:09;6.90;99.90
27164;DHT22;14685;50.618;7.024;2024-02-23T04:01:38;7.00;99.90
27164;DHT22;14685;50.618;7.024;2024-02-23T04:04:06;7.00;99.90
27164;DHT22;14685;50.618;7.024;2024-02-23T04:06:34;7.00;99.90
27164;DHT22;14685;50.618;7.024;2024-02-23T04:09:02;7.00;99.90
27164;DHT22;14685;50.618;7.024;2024-02-23T04:11:32;7.00;99.90
27164;DHT22;14685;50.618;7.024;2024-02-23T04:14:00;7.00;99.90
27164;DHT22;14685;50.618;7.024;2024-02-23T04:16:27;7.10;99.90
27164;DHT22;14685;50.618;7.024;2024-02-23T04:18:55;7.10;99.90
27164;DHT22;14685;50.618;7.024;2024-02-23T04:21:23;7.00;99.90
27164;DHT22;14685;50.618;7.024;2024-02-23T04:23:51;7.00;99.90
27164;DHT22;14685;50.618;7.024;2024-02-23T04:26:18;6.90;99.90
27164;DHT22;14685;50.618;7.024;2024-02-23T04:28:46;7.00;99.90
27164;DHT22;14685;50.618;7.024;2024-02-23T04:31:13;7.00;99.90
27164;DHT22;14685;50.618;7.024;2024-02-23T04:33:41;7.10;99.90
27164;DHT22;14685;50.618;7.024;2024-02-23T04:36:10;7.10;99.90
27164;DHT22;14685;50.618;7.024;2024-02-23T04:38:37;7.10;99.90
27164;DHT22;14685;50.618;7.024;2024-02-23T04:41:04;7.10;99.90
27164;DHT22;14685;50.618;7.024;2024-02-23T04:43:34;7.00;99.90
27164;DHT22;14685;50.618;7.024;2024-02-23T04:46:01;7.00;99.90
27164;DHT22;14685;50.618;7.024;2024-02-23T04:48:28;6.90;99.90
27164;DHT22;14685;50.618;7.024;2024-02-23T04:50:58;6.80;99.90
27164;DHT22;14685;50.618;7.024;2024-02-23T04:53:26;6.80;99.90
27164;DHT22;14685;50.618;7.024;2024-02-23T04:55:53;6.70;99.90
27164;DHT22;14685;50.618;7.024;2024-02-23T04:58:20;6.60;99.90
27164;DHT22;14685;50.618;7.024;2024-02-23T05:00:48;6.60;99.90
27164;DHT22;14685;50.618;7.024;2024-02-23T05:03:14;6.70;99.90
27164;DHT22;14685;50.618;7.024;2024-02-23T05:05:43;6.70;99.90
27164;DHT22;14685;50.618;7.024;2024-02-23T05:08:11;6.80;99.90
27164;DHT22;14685;50.618;7.024;2024-02-23T05:10:41;6.90;99.90
27164;DHT22;14685;50.618;7.024;2024-02-23T05:13:08;6.90;99.90
27164;DHT22;14685;50.618;7.024;2024-02-23T05:15:35;6.90;99.90
27164;DHT22;14685;50.618;7.024;2024-02-23T05:18:03;7.00;99.90
27164;DHT22;14685;50.618;7.024;2024-02-23T05:20:30;7.00;99.90
27164;DHT22;14685;50.618;7.024;2024-02-23T05:22:58;7.00;99.90
27164;DHT22;14685;50.618;7.024;2024-02-23T05:25:25;6.90;99.90
27164;DHT22;14685;50.618;7.024;2024-02-23T05:27:53;6.90;99.90
27164;DHT22;14685;50.618;7.024;2024-02-23T05:30:22;6.90;99.90
27164;DHT22;14685;50.618;7.024;2024-02-23T05:32:49;6.90;99.90
27164;DHT22;14685;50.618;7.024;2024-02-23T05:35:16;6.90;99.90
27164;DHT22;14685;50.618;7.024;2024-02-23T05:37:44;6.80;99.90
27164;DHT22;14685;50.618;7.024;2024-02-23T05:40:11;6.80;99.90
27164;DHT22;14685;50.618;7.024;2024-02-23T05:42:39;6.70;99.90
27164;DHT22;14685;50.618;7.024;2024-02-23T05:45:08;6.70;99.90
27164;DHT22;14685;50.618;7.024;2024-02-23T05:47:38;6.70;99.90
27164;DHT22;14685;50.618;7.024;2024-02-23T05:50:10;6.70;99.90
27164;DHT22;14685;50.618;7.024;2024-02-23T05:52:37;6.80;99.90
27164;DHT22;14685;50.618;7.024;2024-02-23T05:55:06;6.90;99.90
27164;DHT22;14685;50.618;7.024;2024-02-23T05:57:34;6.90;99.90
27164;DHT22;14685;50.618;7.024;2024-02-23T06:00:03;6.90;99.90
27164;DHT22;14685;50.618;7.024;2024-02-23T06:02:30;6.90;99.90
27164;DHT22;14685;50.618;7.024;2024-02-23T06:04:58;7.00;99.90
27164;DHT22;14685;50.618;7.024;2024-02-23T06:07:25;7.00;99.90
27164;DHT22;14685;50.618;7.024;2024-02-23T06:09:56;7.00;99.90
27164;DHT22;14685;50.618;7.024;2024-02-23T06:12:23;6.90;99.90
27164;DHT22;14685;50.618;7.024;2024-02-23T06:14:54;6.90;99.90
27164;DHT22;14685;50.618;7.024;2024-02-23T06:17:23;7.00;99.90
27164;DHT22;14685;50.618;7.024;2024-02-23T06:19:51;7.10;99.90
27164;DHT22;14685;50.618;7.024;2024-02-23T06:22:20;7.10;99.90
27164;DHT22;14685;50.618;7.024;2024-02-23T06:24:52;7.10;99.90
27164;DHT22;14685;50.618;7.024;2024-02-23T06:27:19;7.10;99.90
27164;DHT22;14685;50.618;7.024;2024-02-23T06:29:47;7.10;99.90
27164;DHT22;14685;50.618;7.024;2024-02-23T06:32:15;7.00;99.90
27164;DHT22;14685;50.618;7.024;2024-02-23T06:34:46;7.00;99.90
27164;DHT22;14685;50.618;7.024;2024-02-23T06:37:14;7.10;99.90
27164;DHT22;14685;50.618;7.024;2024-02-23T06:39:41;7.10;99.90
27164;DHT22;14685;50.618;7.024;2024-02-23T06:42:09;7.10;99.90
27164;DHT22;14685;50.618;7.024;2024-02-23T06:44:39;7.20;99.90
27164;DHT22;14685;50.618;7.024;2024-02-23T06:47:07;7.10;99.90
27164;DHT22;14685;50.618;7.024;2024-02-23T06:49:33;7.20;99.90
27164;DHT22;14685;50.618;7.024;2024-02-23T06:52:02;7.10;99.90
27164;DHT22;14685;50.618;7.024;2024-02-23T06:54:30;7.20;99.90
27164;DHT22;14685;50.618;7.024;2024-02-23T06:56:58;7.30;99.90
27164;DHT22;14685;50.618;7.024;2024-02-23T06:59:25;7.20;99.90
27164;DHT22;14685;50.618;7.024;2024-02-23T07:01:53;7.20;99.90
27164;DHT22;14685;50.618;7.024;2024-02-23T07:04:21;7.20;99.90
27164;DHT22;14685;50.618;7.024;2024-02-23T07:06:48;7.20;99.90
27164;DHT22;14685;50.618;7.024;2024-02-23T07:09:16;7.20;99.90
27164;DHT22;14685;50.618;7.024;2024-02-23T07:11:43;7.20;99.90
27164;DHT22;14685;50.618;7.024;2024-02-23T07:14:13;7.20;99.90
27164;DHT22;14685;50.618;7.024;2024-02-23T07:16:41;7.30;99.90
27164;DHT22;14685;50.618;7.024;2024-02-23T07:19:08;7.30;99.90
27164;DHT22;14685;50.618;7.024;2024-02-23T07:21:36;7.30;99.90
27164;DHT22;14685;50.618;7.024;2024-02-23T07:24:08;7.30;99.90
27164;DHT22;14685;50.618;7.024;2024-02-23T07:26:34;7.40;99.90
27164;DHT22;14685;50.618;7.024;2024-02-23T07:29:04;7.40;99.90
27164;DHT22;14685;50.618;7.024;2024-02-23T07:31:31;7.50;99.90
27164;DHT22;14685;50.618;7.024;2024-02-23T07:33:59;7.40;99.90
27164;DHT22;14685;50.618;7.024;2024-02-23T07:36:26;7.50;99.90
27164;DHT22;14685;50.618;7.024;2024-02-23T07:38:54;7.50;99.90
27164;DHT22;14685;50.618;7.024;2024-02-23T07:41:23;7.60;99.90
27164;DHT22;14685;50.618;7.024;2024-02-23T07:43:50;7.70;99.90
27164;DHT22;14685;50.618;7.024;2024-02-23T07:46:17;7.70;99.90
27164;DHT22;14685;50.618;7.024;2024-02-23T07:48:44;7.70;99.90
27164;DHT22;14685;50.618;7.024;2024-02-23T07:51:12;7.80;99.90
27164;DHT22;14685;50.618;7.024;2024-02-23T07:53:39;7.90;99.90
27164;DHT22;14685;50.618;7.024;2024-02-23T07:56:10;8.00;99.90
27164;DHT22;14685;50.618;7.024;2024-02-23T07:58:40;8.20;99.90
27164;DHT22;14685;50.618;7.024;2024-02-23T08:01:07;8.30;99.90
27164;DHT22;14685;50.618;7.024;2024-02-23T08:03:34;8.60;99.90
27164;DHT22;14685;50.618;7.024;2024-02-23T08:06:01;8.70;99.90
27164;DHT22;14685;50.618;7.024;2024-02-23T08:08:31;8.80;99.90
27164;DHT22;14685;50.618;7.024;2024-02-23T08:11:02;8.80;99.90
27164;DHT22;14685;50.618;7.024;2024-02-23T08:13:31;8.80;99.90
27164;DHT22;14685;50.618;7.024;2024-02-23T08:15:59;8.70;99.90
27164;DHT22;14685;50.618;7.024;2024-02-23T08:18:27;8.70;99.90
27164;DHT22;14685;50.618;7.024;2024-02-23T08:20:54;8.50;99.90
27164;DHT22;14685;50.618;7.024;2024-02-23T08:23:21;8.50;99.90
27164;DHT22;14685;50.618;7.024;2024-02-23T08:25:50;8.50;99.90
27164;DHT22;14685;50.618;7.024;2024-02-23T08:28:18;8.40;99.90
27164;DHT22;14685;50.618;7.024;2024-02-23T08:30:46;8.40;99.90
27164;DHT22;14685;50.618;7.024;2024-02-23T08:33:13;8.40;99.90
27164;DHT22;14685;50.618;7.024;2024-02-23T08:35:40;8.30;99.90
27164;DHT22;14685;50.618;7.024;2024-02-23T08:38:07;8.30;99.90
27164;DHT22;14685;50.618;7.024;2024-02-23T08:40:34;8.30;99.90
27164;DHT22;14685;50.618;7.024;2024-02-23T08:43:02;8.30;99.90
27164;DHT22;14685;50.618;7.024;2024-02-23T08:45:29;8.30;99.90
27164;DHT22;14685;50.618;7.024;2024-02-23T08:47:58;8.40;99.90
27164;DHT22;14685;50.618;7.024;2024-02-23T08:50:25;8.40;99.90
27164;DHT22;14685;50.618;7.024;2024-02-23T08:52:52;8.40;99.90
27164;DHT22;14685;50.618;7.024;2024-02-23T08:55:19;8.40;99.90
27164;DHT22;14685;50.618;7.024;2024-02-23T08:57:48;8.50;99.90
27164;DHT22;14685;50.618;7.024;2024-02-23T09:00:18;8.70;99.90
27164;DHT22;14685;50.618;7.024;2024-02-23T09:02:45;8.90;99.90
27164;DHT22;14685;50.618;7.024;2024-02-23T09:05:12;9.00;99.90
27164;DHT22;14685;50.618;7.024;2024-02-23T09:07:39;9.00;99.90
27164;DHT22;14685;50.618;7.024;2024-02-23T09:10:08;9.00;99.90
27164;DHT22;14685;50.618;7.024;2024-02-23T09:12:37;9.20;99.90
27164;DHT22;14685;50.618;7.024;2024-02-23T09:15:05;9.30;99.90
27164;DHT22;14685;50.618;7.024;2024-02-23T09:17:33;9.30;99.90
27164;DHT22;14685;50.618;7.024;2024-02-23T09:20:00;9.20;99.90
27164;DHT22;14685;50.618;7.024;2024-02-23T09:22:27;9.30;99.90
27164;DHT22;14685;50.618;7.024;2024-02-23T09:24:54;9.40;99.90
27164;DHT22;14685;50.618;7.024;2024-02-23T09:27:23;9.60;99.90
27164;DHT22;14685;50.618;7.024;2024-02-23T09:29:51;9.80;99.90
27164;DHT22;14685;50.618;7.024;2024-02-23T09:32:18;10.00;99.90
27164;DHT22;14685;50.618;7.024;2024-02-23T09:34:45;10.00;99.90
27164;DHT22;14685;50.618;7.024;2024-02-23T09:37:12;10.20;99.90
27164;DHT22;14685;50.618;7.024;2024-02-23T09:39:39;10.40;99.90
27164;DHT22;14685;50.618;7.024;2024-02-23T09:42:10;10.50;99.90
27164;DHT22;14685;50.618;7.024;2024-02-23T09:44:41;10.60;99.90
27164;DHT22;14685;50.618;7.024;2024-02-23T09:47:12;10.60;99.90
27164;DHT22;14685;50.618;7.024;2024-02-23T09:49:40;10.60;99.90
27164;DHT22;14685;50.618;7.024;2024-02-23T09:52:08;10.70;99.90
27164;DHT22;14685;50.618;7.024;2024-02-23T09:54:38;10.60;99.90
27164;DHT22;14685;50.618;7.024;2024-02-23T09:57:07;10.50;99.90
27164;DHT22;14685;50.618;7.024;2024-02-23T09:59:35;10.50;99.90
27164;DHT22;14685;50.618;7.024;2024-02-23T10:02:14;10.60;99.90
27164;DHT22;14685;50.618;7.024;2024-02-23T10:04:42;10.60;99.90
27164;DHT22;14685;50.618;7.024;2024-02-23T10:07:18;10.70;99.90
27164;DHT22;14685;50.618;7.024;2024-02-23T10:09:45;10.80;99.90
27164;DHT22;14685;50.618;7.024;2024-02-23T10:12:13;10.80;99.90
27164;DHT22;14685;50.618;7.024;2024-02-23T10:14:41;11.00;99.90
27164;DHT22;14685;50.618;7.024;2024-02-23T10:17:09;11.10;99.90
27164;DHT22;14685;50.618;7.024;2024-02-23T10:19:36;11.20;99.90
27164;DHT22;14685;50.618;7.024;2024-02-23T10:22:04;11.20;99.90
27164;DHT22;14685;50.618;7.024;2024-02-23T10:24:31;11.20;99.90
27164;DHT22;14685;50.618;7.024;2024-02-23T10:27:00;11.20;99.90
27164;DHT22;14685;50.618;7.024;2024-02-23T10:29:29;11.10;99.90
27164;DHT22;14685;50.618;7.024;2024-02-23T10:31:57;11.00;99.90
27164;DHT22;14685;50.618;7.024;2024-02-23T10:34:27;11.00;99.90
27164;DHT22;14685;50.618;7.024;2024-02-23T10:36:57;10.70;99.90
27164;DHT22;14685;50.618;7.024;2024-02-23T10:39:24;10.50;99.90
27164;DHT22;14685;50.618;7.024;2024-02-23T10:42:00;10.50;99.90
27164;DHT22;14685;50.618;7.024;2024-02-23T10:44:28;10.50;99.90
27164;DHT22;14685;50.618;7.024;2024-02-23T10:46:58;10.50;99.90
27164;DHT22;14685;50.618;7.024;2024-02-23T10:49:27;10.50;99.90
27164;DHT22;14685;50.618;7.024;2024-02-23T10:51:55;10.40;99.90
27164;DHT22;14685;50.618;7.024;2024-02-23T10:54:23;10.30;99.90
27164;DHT22;14685;50.618;7.024;2024-02-23T10:56:51;10.30;99.90
27164;DHT22;14685;50.618;7.024;2024-02-23T10:59:18;10.30;99.90
27164;DHT22;14685;50.618;7.024;2024-02-23T11:01:51;10.20;99.90
27164;DHT22;14685;50.618;7.024;2024-02-23T11:04:22;10.20;99.90
27164;DHT22;14685;50.618;7.024;2024-02-23T11:06:51;10.20;99.90
27164;DHT22;14685;50.618;7.024;2024-02-23T11:09:21;10.30;99.90
27164;DHT22;14685;50.618;7.024;2024-02-23T11:11:56;10.30;99.90
27164;DHT22;14685;50.618;7.024;2024-02-23T11:14:31;10.30;99.90
27164;DHT22;14685;50.618;7.024;2024-02-23T11:17:02;10.30;99.90
27164;DHT22;14685;50.618;7.024;2024-02-23T11:19:39;10.30;99.90
27164;DHT22;14685;50.618;7.024;2024-02-23T11:22:09;10.30;99.90
27164;DHT22;14685;50.618;7.024;2024-02-23T11:24:49;10.30;99.90
27164;DHT22;14685;50.618;7.024;2024-02-23T11:27:24;10.40;99.90
27164;DHT22;14685;50.618;7.024;2024-02-23T11:30:08;10.30;99.90
27164;DHT22;14685;50.618;7.024;2024-02-23T11:32:42;10.30;99.90
27164;DHT22;14685;50.618;7.024;2024-02-23T11:35:15;10.40;99.90
27164;DHT22;14685;50.618;7.024;2024-02-23T11:37:52;10.30;99.90
27164;DHT22;14685;50.618;7.024;2024-02-23T11:40:26;10.40;99.90
27164;DHT22;14685;50.618;7.024;2024-02-23T11:42:57;10.40;99.90
27164;DHT22;14685;50.618;7.024;2024-02-23T11:45:30;10.50;99.90
27164;DHT22;14685;50.618;7.024;2024-02-23T11:47:58;10.50;99.90
27164;DHT22;14685;50.618;7.024;2024-02-23T11:50:26;10.50;99.90
27164;DHT22;14685;50.618;7.024;2024-02-23T11:52:54;10.70;99.90
27164;DHT22;14685;50.618;7.024;2024-02-23T11:55:21;10.70;99.90
27164;DHT22;14685;50.618;7.024;2024-02-23T11:57:50;10.80;99.90
27164;DHT22;14685;50.618;7.024;2024-02-23T12:00:30;10.80;99.90
27164;DHT22;14685;50.618;7.024;2024-02-23T12:02:59;10.70;99.90
27164;DHT22;14685;50.618;7.024;2024-02-23T12:05:27;10.60;99.90
27164;DHT22;14685;50.618;7.024;2024-02-23T12:07:54;10.70;99.90
27164;DHT22;14685;50.618;7.024;2024-02-23T12:10:22;10.70;99.90
27164;DHT22;14685;50.618;7.024;2024-02-23T12:12:49;10.70;99.90
27164;DHT22;14685;50.618;7.024;2024-02-23T12:15:17;10.70;99.90
27164;DHT22;14685;50.618;7.024;2024-02-23T12:17:48;10.80;99.90
27164;DHT22;14685;50.618;7.024;2024-02-23T12:20:16;10.70;99.90
27164;DHT22;14685;50.618;7.024;2024-02-23T12:22:46;10.70;99.90
27164;DHT22;14685;50.618;7.024;2024-02-23T12:25:13;10.70;99.90
27164;DHT22;14685;50.618;7.024;2024-02-23T12:27:42;10.70;99.90
27164;DHT22;14685;50.618;7.024;2024-02-23T12:30:14;10.80;99.90
27164;DHT22;14685;50.618;7.024;2024-02-23T12:32:43;10.80;99.90
27164;DHT22;14685;50.618;7.024;2024-02-23T12:35:14;10.80;99.90
27164;DHT22;14685;50.618;7.024;2024-02-23T12:37:43;10.80;99.90
27164;DHT22;14685;50.618;7.024;2024-02-23T12:40:11;10.80;99.90
27164;DHT22;14685;50.618;7.024;2024-02-23T12:42:39;10.80;99.90
27164;DHT22;14685;50.618;7.024;2024-02-23T12:45:06;10.90;99.90
27164;DHT22;14685;50.618;7.024;2024-02-23T12:47:33;10.90;99.90
27164;DHT22;14685;50.618;7.024;2024-02-23T12:50:01;10.90;99.90
27164;DHT22;14685;50.618;7.024;2024-02-23T12:52:28;11.00;99.90
27164;DHT22;14685;50.618;7.024;2024-02-23T12:54:55;11.00;99.90
27164;DHT22;14685;50.618;7.024;2024-02-23T12:57:22;11.00;99.90
27164;DHT22;14685;50.618;7.024;2024-02-23T12:59:49;11.00;99.90
27164;DHT22;14685;50.618;7.024;2024-02-23T13:02:16;10.90;99.90
27164;DHT22;14685;50.618;7.024;2024-02-23T13:04:43;10.90;99.90
27164;DHT22;14685;50.618;7.024;2024-02-23T13:07:16;10.80;99.90
27164;DHT22;14685;50.618;7.024;2024-02-23T13:09:44;10.70;99.90
27164;DHT22;14685;50.618;7.024;2024-02-23T13:12:11;10.50;99.90
27164;DHT22;14685;50.618;7.024;2024-02-23T13:14:38;10.40;99.90
27164;DHT22;14685;50.618;7.024;2024-02-23T13:17:06;10.50;99.90
27164;DHT22;14685;50.618;7.024;2024-02-23T13:19:33;10.50;99.90
27164;DHT22;14685;50.618;7.024;2024-02-23T13:22:03;10.50;99.90
27164;DHT22;14685;50.618;7.024;2024-02-23T13:24:29;10.50;99.90
27164;DHT22;14685;50.618;7.024;2024-02-23T13:26:56;10.50;99.90
27164;DHT22;14685;50.618;7.024;2024-02-23T13:29:23;10.50;99.90
27164;DHT22;14685;50.618;7.024;2024-02-23T13:31:53;10.50;99.90
27164;DHT22;14685;50.618;7.024;2024-02-23T13:34:20;10.60;99.90
27164;DHT22;14685;50.618;7.024;2024-02-23T13:36:47;10.60;99.90
27164;DHT22;14685;50.618;7.024;2024-02-23T13:39:18;10.60;99.90
27164;DHT22;14685;50.618;7.024;2024-02-23T13:41:45;10.70;99.90
27164;DHT22;14685;50.618;7.024;2024-02-23T13:44:12;10.70;99.90
27164;DHT22;14685;50.618;7.024;2024-02-23T13:46:42;10.70;99.90
27164;DHT22;14685;50.618;7.024;2024-02-23T13:49:10;10.80;99.90
27164;DHT22;14685;50.618;7.024;2024-02-23T13:51:39;10.90;99.90
27164;DHT22;14685;50.618;7.024;2024-02-23T13:54:06;10.90;99.90
27164;DHT22;14685;50.618;7.024;2024-02-23T13:56:33;10.90;99.90
27164;DHT22;14685;50.618;7.024;2024-02-23T13:59:00;10.70;99.90
27164;DHT22;14685;50.618;7.024;2024-02-23T14:01:27;10.70;99.90
27164;DHT22;14685;50.618;7.024;2024-02-23T14:03:54;10.70;99.90
27164;DHT22;14685;50.618;7.024;2024-02-23T14:06:21;10.80;99.90
27164;DHT22;14685;50.618;7.024;2024-02-23T14:08:48;10.90;99.90
27164;DHT22;14685;50.618;7.024;2024-02-23T14:11:16;10.90;99.90
27164;DHT22;14685;50.618;7.024;2024-02-23T14:13:43;10.90;99.90
27164;DHT22;14685;50.618;7.024;2024-02-23T14:16:15;10.90;99.90
27164;DHT22;14685;50.618;7.024;2024-02-23T14:18:42;10.90;99.90
27164;DHT22;14685;50.618;7.024;2024-02-23T14:21:11;10.90;99.90
27164;DHT22;14685;50.618;7.024;2024-02-23T14:23:42;11.00;99.90
27164;DHT22;14685;50.618;7.024;2024-02-23T14:26:09;11.00;99.90
27164;DHT22;14685;50.618;7.024;2024-02-23T14:28:36;10.90;99.90
27164;DHT22;14685;50.618;7.024;2024-02-23T14:31:03;11.00;99.90
27164;DHT22;14685;50.618;7.024;2024-02-23T14:33:32;10.90;99.90
27164;DHT22;14685;50.618;7.024;2024-02-23T14:36:00;10.80;99.90
27164;DHT22;14685;50.618;7.024;2024-02-23T14:38:27;10.80;99.90
27164;DHT22;14685;50.618;7.024;2024-02-23T14:40:55;10.70;99.90
27164;DHT22;14685;50.618;7.024;2024-02-23T14:43:22;10.70;99.90
27164;DHT22;14685;50.618;7.024;2024-02-23T14:45:49;10.60;99.90
27164;DHT22;14685;50.618;7.024;2024-02-23T14:48:20;10.60;99.90
27164;DHT22;14685;50.618;7.024;2024-02-23T14:50:47;10.60;99.90
27164;DHT22;14685;50.618;7.024;2024-02-23T14:53:15;10.60;99.90
27164;DHT22;14685;50.618;7.024;2024-02-23T14:55:43;10.60;99.90
27164;DHT22;14685;50.618;7.024;2024-02-23T14:58:10;10.60;99.90
27164;DHT22;14685;50.618;7.024;2024-02-23T15:00:37;10.50;99.90
27164;DHT22;14685;50.618;7.024;2024-02-23T15:03:05;10.60;99.90
27164;DHT22;14685;50.618;7.024;2024-02-23T15:05:32;10.60;99.90
27164;DHT22;14685;50.618;7.024;2024-02-23T15:08:01;10.50;99.90
27164;DHT22;14685;50.618;7.024;2024-02-23T15:10:28;10.60;99.90
27164;DHT22;14685;50.618;7.024;2024-02-23T15:12:55;10.60;99.90
27164;DHT22;14685;50.618;7.024;2024-02-23T15:15:23;10.70;99.90
27164;DHT22;14685;50.618;7.024;2024-02-23T15:17:50;10.70;99.90
27164;DHT22;14685;50.618;7.024;2024-02-23T15:20:17;10.70;99.90
27164;DHT22;14685;50.618;7.024;2024-02-23T15:22:44;10.70;99.90
27164;DHT22;14685;50.618;7.024;2024-02-23T15:25:13;10.70;99.90
27164;DHT22;14685;50.618;7.024;2024-02-23T15:27:40;10.60;99.90
27164;DHT22;14685;50.618;7.024;2024-02-23T15:30:08;10.60;99.90
27164;DHT22;14685;50.618;7.024;2024-02-23T15:32:36;10.60;99.90
27164;DHT22;14685;50.618;7.024;2024-02-23T15:35:04;10.50;99.90
27164;DHT22;14685;50.618;7.024;2024-02-23T15:37:32;10.50;99.90
27164;DHT22;14685;50.618;7.024;2024-02-23T15:40:01;10.50;99.90
27164;DHT22;14685;50.618;7.024;2024-02-23T15:42:31;10.40;99.90
27164;DHT22;14685;50.618;7.024;2024-02-23T15:44:58;10.40;99.90
27164;DHT22;14685;50.618;7.024;2024-02-23T15:47:25;10.40;99.90
27164;DHT22;14685;50.618;7.024;2024-02-23T15:49:52;10.50;99.90